Time;durP1;ratioP1;P1;durP2;ratioP2;P2;SDS_P1;SDS_P2;PMS_P1;PMS_P2;Temp;Humidity;BMP_temperature;BMP_pressure;BME280_temperature;BME280_humidity;BME280_pressure;Samples;Min_cycle;Max_cycle;Signal;HPM_P1;HPM_P2
2021/03/20 00:05:11;;;;;;;14.13;7.43;;;;;;;-0.70;91.11;101212.38;20866859;28;20173;-71
2021/03/20 00:15:15;;;;;;;11.80;6.43;;;;;;;-0.80;92.03;101219.19;20987121;28;20144;-71
2021/03/20 00:25:16;;;;;;;17.60;7.80;;;;;;;-0.85;92.59;101226.00;20986316;28;20118;-70
2021/03/20 00:35:20;;;;;;;10.90;5.80;;;;;;;-1.02;94.00;101222.50;20970937;28;20110;-70
2021/03/20 00:45:23;;;;;;;12.20;6.53;;;;;;;-1.31;95.01;101220.56;20985827;28;20045;-70
2021/03/20 00:55:24;;;;;;;12.23;6.43;;;;;;;-1.26;95.55;101225.75;20984715;28;20044;-71
2021/03/20 01:05:25;;;;;;;12.48;6.78;;;;;;;-1.15;95.26;101228.38;20951942;28;20049;-70
2021/03/20 01:15:26;;;;;;;15.07;7.55;;;;;;;-0.96;94.11;101220.81;20984031;28;20450;-71
2021/03/20 01:25:27;;;;;;;14.75;7.65;;;;;;;-0.72;94.21;101219.22;20983748;28;20458;-70
2021/03/20 01:35:28;;;;;;;17.67;9.07;;;;;;;-0.45;92.55;101214.19;20967777;28;20151;-70
2021/03/20 01:45:32;;;;;;;13.18;7.60;;;;;;;-0.60;93.54;101232.13;20982968;28;20484;-69
2021/03/20 01:55:33;;;;;;;15.32;8.40;;;;;;;-0.25;92.98;101239.97;20982168;28;20049;-71
2021/03/20 02:05:34;;;;;;;12.73;7.00;;;;;;;-0.07;90.95;101245.19;20883081;28;20044;-70
2021/03/20 02:15:50;;;;;;;19.02;7.97;;;;;;;0.05;90.79;101244.34;20997228;28;20044;-70
2021/03/20 02:26:12;;;;;;;11.85;6.95;;;;;;;0.10;89.81;101245.22;20978927;28;20095;-70
2021/03/20 02:36:35;;;;;;;14.23;7.63;;;;;;;0.06;89.98;101235.75;20980348;28;20036;-70
2021/03/20 02:46:40;;;;;;;14.07;7.53;;;;;;;0.05;90.18;101236.63;20978154;28;20098;-70
2021/03/20 02:56:57;;;;;;;15.98;7.93;;;;;;;0.06;90.08;101239.19;20993567;28;20139;-70
2021/03/20 03:07:05;;;;;;;20.13;10.77;;;;;;;0.09;90.83;101253.78;20959632;28;20066;-70
2021/03/20 03:17:08;;;;;;;14.45;7.65;;;;;;;-0.11;91.46;101239.19;20991285;28;20044;-70
2021/03/20 03:27:13;;;;;;;14.43;8.10;;;;;;;-0.03;91.01;101259.75;20990834;28;20045;-70
2021/03/20 03:37:25;;;;;;;13.13;7.47;;;;;;;-0.03;91.12;101270.91;20975487;28;20090;-69
2021/03/20 03:47:28;;;;;;;15.98;8.68;;;;;;;-0.20;92.20;101287.13;20989201;28;20052;-70
2021/03/20 03:57:48;;;;;;;15.60;8.27;;;;;;;-0.22;92.37;101292.31;20880627;28;20095;-69
2021/03/20 04:08:07;;;;;;;15.77;8.98;;;;;;;-0.27;92.13;101308.56;20899563;28;20055;-70
2021/03/20 04:18:37;;;;;;;17.52;9.63;;;;;;;-0.28;92.07;101301.69;20987193;28;20045;-70
2021/03/20 04:28:47;;;;;;;18.75;9.27;;;;;;;-0.52;93.12;101294.72;20986017;28;20098;-71
2021/03/20 04:38:49;;;;;;;14.90;9.35;;;;;;;-0.70;94.41;101271.47;20991187;28;20496;-70
2021/03/20 04:49:20;;;;;;;16.98;9.07;;;;;;;-1.00;96.75;101285.88;21004449;28;20045;-70
2021/03/20 04:59:47;;;;;;;17.17;9.05;;;;;;;-1.26;97.71;101305.34;20970916;28;20044;-70
2021/03/20 05:09:56;;;;;;;17.92;10.88;;;;;;;-1.38;98.62;101315.53;20908738;28;20045;-70
2021/03/20 05:20:07;;;;;;;18.42;10.00;;;;;;;-1.40;98.02;101307.81;20900951;28;20492;-70
2021/03/20 05:30:11;;;;;;;17.85;10.35;;;;;;;-1.54;98.18;101324.81;20900243;28;20044;-70
2021/03/20 05:40:31;;;;;;;18.70;9.50;;;;;;;-1.63;98.91;101334.13;20967420;28;20048;-69
2021/03/20 05:50:39;;;;;;;18.58;10.35;;;;;;;-1.56;98.55;101331.59;20980934;28;20565;-70
2021/03/20 06:00:54;;;;;;;18.42;10.25;;;;;;;-1.41;97.31;101347.16;20947057;28;20096;-70
2021/03/20 06:10:56;;;;;;;17.83;10.13;;;;;;;-1.21;96.91;101364.44;20965954;28;20151;-70
2021/03/20 06:21:37;;;;;;;19.23;10.48;;;;;;;-1.22;97.09;101373.91;20996014;28;20048;-70
2021/03/20 06:31:41;;;;;;;19.20;10.63;;;;;;;-1.01;95.68;101368.06;20994688;28;20052;-70
2021/03/20 06:41:53;;;;;;;20.88;10.57;;;;;;;-0.83;94.63;101377.63;20980052;28;20044;-69
2021/03/20 06:51:56;;;;;;;19.05;9.95;;;;;;;-0.79;94.70;101399.94;20975684;28;20048;-69
2021/03/20 07:02:03;;;;;;;16.90;9.20;;;;;;;-0.70;94.65;101425.69;20974305;28;20041;-70
2021/03/20 07:12:13;;;;;;;17.90;9.88;;;;;;;-0.63;93.60;101435.19;20978230;28;20056;-69
2021/03/20 07:22:25;;;;;;;17.73;10.60;;;;;;;-0.41;92.74;101421.66;20991000;28;20076;-70
2021/03/20 07:32:26;;;;;;;16.17;9.57;;;;;;;0.00;89.71;101437.34;20985079;28;20094;-70
2021/03/20 07:42:32;;;;;;;17.45;9.73;;;;;;;0.36;87.47;101436.63;20979590;28;20481;-69
2021/03/20 07:52:34;;;;;;;19.02;9.90;;;;;;;0.66;83.63;101444.47;20988927;28;20045;-69
2021/03/20 08:02:40;;;;;;;16.15;7.68;;;;;;;1.12;78.36;101452.28;20836426;28;20057;-69
2021/03/20 08:13:01;;;;;;;13.20;7.05;;;;;;;1.49;76.46;101463.47;20909950;28;20489;-69
2021/03/20 08:23:11;;;;;;;10.00;3.72;;;;;;;1.28;67.60;101490.13;20852645;28;20049;-69
2021/03/20 08:33:53;;;;;;;10.55;4.32;;;;;;;2.04;67.46;101495.25;20908238;28;20040;-69
2021/03/20 08:44:03;;;;;;;8.80;4.10;;;;;;;2.02;66.06;101507.31;20913104;28;20059;-70
2021/03/20 08:54:17;;;;;;;9.88;4.22;;;;;;;2.36;66.20;101498.63;20904021;28;20071;-69
2021/03/20 09:04:27;;;;;;;7.17;3.90;;;;;;;3.19;65.63;101510.31;20910953;28;20411;-69
2021/03/20 09:14:35;;;;;;;8.32;3.90;;;;;;;2.96;62.38;101506.97;20964784;28;20118;-69
2021/03/20 09:24:51;;;;;;;8.43;4.63;;;;;;;3.18;65.05;101518.94;20919693;28;20519;-69
2021/03/20 09:34:53;;;;;;;10.90;4.82;;;;;;;2.50;64.03;101512.34;20928338;28;20419;-69
2021/03/20 09:45:12;;;;;;;10.07;5.45;;;;;;;2.92;64.71;101502.69;21001664;28;20052;-69
2021/03/20 09:55:28;;;;;;;11.55;5.60;;;;;;;3.39;59.52;101498.09;20912340;28;20060;-69
2021/03/20 10:05:30;;;;;;;10.30;4.10;;;;;;;3.11;59.78;101496.53;20893741;28;20426;-69
2021/03/20 10:15:35;;;;;;;8.25;4.03;;;;;;;3.94;59.85;101484.66;20957469;28;20095;-69
2021/03/20 10:25:44;;;;;;;11.70;5.50;;;;;;;3.57;54.11;101481.53;20900530;28;20047;-68
2021/03/20 10:35:45;;;;;;;6.82;3.72;;;;;;;3.48;58.36;101454.88;20876843;28;20052;-68
2021/03/20 10:45:47;;;;;;;7.50;3.30;;;;;;;3.79;52.91;101466.69;20889136;28;20046;-68
2021/03/20 10:55:54;;;;;;;7.68;3.47;;;;;;;3.88;50.73;101461.41;20890753;28;20045;-68
2021/03/20 11:06:06;;;;;;;7.80;3.20;;;;;;;4.21;49.76;101463.66;20888764;28;20059;-69
2021/03/20 11:16:15;;;;;;;6.85;2.92;;;;;;;4.27;49.09;101449.75;20880492;28;20087;-69
2021/03/20 11:26:22;;;;;;;5.53;3.00;;;;;;;3.84;52.30;101454.56;20887122;28;20102;-70
2021/03/20 11:36:28;;;;;;;5.72;3.13;;;;;;;4.14;49.10;101454.25;20900206;28;20048;-69
2021/03/20 11:46:34;;;;;;;5.78;2.55;;;;;;;4.18;50.39;101440.38;20900999;28;20114;-70
2021/03/20 11:56:39;;;;;;;6.38;2.85;;;;;;;4.16;46.52;101436.94;20903737;28;20045;-69
2021/03/20 12:06:40;;;;;;;7.07;3.08;;;;;;;4.30;45.85;101429.00;20898695;28;20048;-69
2021/03/20 12:16:43;;;;;;;4.85;2.38;;;;;;;4.19;46.23;101416.19;20886620;28;20091;-70
2021/03/20 12:26:44;;;;;;;7.30;2.95;;;;;;;4.60;43.61;101407.03;20912934;28;20048;-70
2021/03/20 12:36:50;;;;;;;5.75;2.78;;;;;;;4.73;42.44;101390.41;20902090;28;20079;-70
2021/03/20 12:46:58;;;;;;;7.60;3.00;;;;;;;4.71;41.56;101384.41;20902671;28;20045;-70
2021/03/20 12:56:59;;;;;;;6.47;3.10;;;;;;;5.12;42.80;101378.56;20896244;28;20447;-70
2021/03/20 13:07:01;;;;;;;5.30;2.60;;;;;;;5.44;37.67;101367.63;20884066;28;20090;-70
2021/03/20 13:17:03;;;;;;;5.15;1.90;;;;;;;5.14;38.10;101356.88;20895666;28;20041;-69
2021/03/20 13:27:06;;;;;;;4.55;1.65;;;;;;;4.78;35.22;101348.84;20898394;28;20424;-70
2021/03/20 13:37:07;;;;;;;4.47;1.70;;;;;;;4.95;35.73;101339.91;20892043;28;20527;-70
2021/03/20 13:47:08;;;;;;;2.95;1.20;;;;;;;5.23;34.34;101334.28;20898700;28;20136;-69
2021/03/20 13:57:09;;;;;;;6.68;2.00;;;;;;;5.59;36.31;101333.59;20906016;28;20045;-69
2021/03/20 14:07:25;;;;;;;5.25;1.88;;;;;;;5.46;34.23;101332.13;20913226;28;20056;-70
2021/03/20 14:17:26;;;;;;;5.45;1.80;;;;;;;5.71;37.79;101304.81;20911652;28;20049;-70
2021/03/20 14:27:27;;;;;;;4.97;1.75;;;;;;;5.62;34.34;101314.50;20906453;28;20048;-70
2021/03/20 14:37:28;;;;;;;5.03;1.55;;;;;;;5.04;36.25;101316.41;20907810;28;20126;-70
2021/03/20 14:47:29;;;;;;;4.35;1.63;;;;;;;5.13;35.57;101305.00;20912559;28;20048;-70
2021/03/20 14:57:30;;;;;;;3.97;1.70;;;;;;;5.21;36.07;101290.19;20898988;28;20037;-69
2021/03/20 15:07:31;;;;;;;4.88;1.40;;;;;;;5.26;35.10;101287.50;20909566;28;20045;-70
2021/03/20 15:17:32;;;;;;;3.92;1.40;;;;;;;5.29;34.52;101280.50;20909914;28;20052;-69
2021/03/20 15:27:44;;;;;;;3.53;1.55;;;;;;;5.22;34.64;101265.09;20892621;28;20073;-69
2021/03/20 15:37:46;;;;;;;4.28;1.77;;;;;;;5.38;36.32;101263.91;20886480;28;20058;-69
2021/03/20 15:47:48;;;;;;;3.17;1.50;;;;;;;5.18;35.66;101258.25;20908339;28;20052;-69
2021/03/20 15:58:10;;;;;;;6.30;1.88;;;;;;;4.97;33.79;101262.94;20903901;28;20045;-69
2021/03/20 16:08:10;;;;;;;4.43;1.73;;;;;;;4.94;34.55;101260.38;20901080;28;20616;-69
2021/03/20 16:18:12;;;;;;;6.53;1.75;;;;;;;4.84;33.19;101261.41;20891132;28;20059;-69
2021/03/20 16:28:37;;;;;;;8.52;2.70;;;;;;;5.03;34.73;101254.16;20899932;28;20459;-69
2021/03/20 16:38:41;;;;;;;4.97;2.00;;;;;;;5.04;34.02;101259.34;20896047;28;20051;-69
2021/03/20 16:48:42;;;;;;;9.03;2.10;;;;;;;4.95;34.54;101243.09;20900135;28;20455;-70
2021/03/20 16:58:57;;;;;;;5.93;1.85;;;;;;;4.73;35.08;101242.59;20900786;28;20468;-71
2021/03/20 17:09:01;;;;;;;12.95;5.13;;;;;;;4.68;35.64;101265.16;20900112;28;20046;-69
2021/03/20 17:19:02;;;;;;;8.40;3.40;;;;;;;4.52;36.57;101253.34;20901552;28;20447;-70
2021/03/20 17:29:17;;;;;;;16.58;8.82;;;;;;;4.19;36.40;101267.63;20895749;28;20477;-69
2021/03/20 17:39:18;;;;;;;10.80;4.68;;;;;;;4.09;39.35;101253.97;20896425;28;20416;-70
2021/03/20 17:49:19;;;;;;;10.38;4.28;;;;;;;3.87;40.20;101243.03;20894375;28;20056;-70
2021/03/20 17:59:31;;;;;;;5.32;1.92;;;;;;;3.81;39.30;101252.59;20864481;28;20048;-68
2021/03/20 18:09:33;;;;;;;7.00;3.70;;;;;;;3.64;42.15;101241.63;20896597;28;20044;-70
2021/03/20 18:19:34;;;;;;;5.80;2.13;;;;;;;3.53;43.93;101246.94;20899558;28;20056;-70
2021/03/20 18:29:36;;;;;;;4.65;1.90;;;;;;;3.51;46.13;101234.88;20911095;28;20045;-70
2021/03/20 18:39:37;;;;;;;4.82;1.60;;;;;;;3.47;47.49;101247.00;20897266;28;20044;-70
2021/03/20 18:49:38;;;;;;;10.38;4.50;;;;;;;3.41;47.88;101242.75;20909059;28;20044;-69
2021/03/20 18:59:39;;;;;;;9.48;5.13;;;;;;;3.28;48.64;101237.72;20900968;28;20477;-70
2021/03/20 19:09:40;;;;;;;8.95;4.43;;;;;;;3.26;49.15;101242.06;20908842;28;20045;-70
2021/03/20 19:19:41;;;;;;;9.52;3.50;;;;;;;3.14;49.84;101237.88;20909695;28;20122;-71
2021/03/20 19:29:42;;;;;;;5.13;1.98;;;;;;;3.03;52.88;101239.72;20909410;28;20053;-71
2021/03/20 19:39:43;;;;;;;6.65;2.60;;;;;;;3.03;52.88;101241.44;20902104;28;20049;-70
2021/03/20 19:49:44;;;;;;;8.90;3.60;;;;;;;2.96;53.98;101233.75;20897524;28;20470;-70
2021/03/20 19:59:47;;;;;;;5.32;2.60;;;;;;;2.98;54.51;101237.19;20898647;28;20090;-71
2021/03/20 20:09:48;;;;;;;5.65;2.03;;;;;;;2.90;55.47;101227.75;20899411;28;20045;-71
2021/03/20 20:19:49;;;;;;;13.30;5.18;;;;;;;2.87;50.13;101223.50;20886977;28;20102;-70
2021/03/20 20:29:51;;;;;;;7.70;3.50;;;;;;;2.71;52.63;101226.22;20904976;28;20476;-71
2021/03/20 20:39:52;;;;;;;8.30;3.33;;;;;;;2.57;51.76;101240.13;20897219;28;20048;-71
2021/03/20 20:49:53;;;;;;;6.93;2.10;;;;;;;2.62;53.80;101227.19;20891517;28;20076;-71
2021/03/20 20:59:54;;;;;;;10.32;4.70;;;;;;;2.64;54.21;101219.41;20906704;28;20060;-71
2021/03/20 21:09:55;;;;;;;13.07;6.18;;;;;;;2.58;58.25;101221.19;20913224;28;20053;-71
2021/03/20 21:19:56;;;;;;;20.67;8.88;;;;;;;2.53;58.87;101222.94;20935917;28;20098;-70
2021/03/20 21:29:58;;;;;;;14.48;7.47;;;;;;;2.53;58.76;101222.94;20909145;28;20478;-70
2021/03/20 21:39:59;;;;;;;12.73;6.93;;;;;;;2.52;58.70;101204.88;20874497;28;20053;-71
2021/03/20 21:50:00;;;;;;;11.15;4.70;;;;;;;2.43;56.71;101210.97;20900240;28;20489;-71
2021/03/20 22:00:04;;;;;;;10.02;5.10;;;;;;;2.33;56.53;101214.50;20873642;28;20045;-70
2021/03/20 22:10:06;;;;;;;16.33;7.25;;;;;;;2.30;61.82;101214.50;20885507;28;20041;-72
2021/03/20 22:20:23;;;;;;;27.45;12.73;;;;;;;2.33;64.85;101209.34;20907565;28;20052;-71
2021/03/20 22:30:26;;;;;;;15.95;8.13;;;;;;;2.32;61.30;101186.94;20914025;28;20056;-70
2021/03/20 22:40:31;;;;;;;16.23;6.20;;;;;;;2.26;58.67;101187.00;20902011;28;20598;-70
2021/03/20 22:50:35;;;;;;;18.17;7.20;;;;;;;2.25;59.53;101193.03;20910155;28;20052;-71
2021/03/20 23:00:39;;;;;;;15.15;7.63;;;;;;;2.28;61.85;101184.41;20880324;28;20044;-72
2021/03/20 23:10:40;;;;;;;9.20;4.93;;;;;;;2.18;58.63;101178.47;20889907;28;20432;-73
2021/03/20 23:20:42;;;;;;;9.68;5.20;;;;;;;2.20;59.30;101173.25;20892591;28;20087;-72
2021/03/20 23:30:44;;;;;;;7.72;3.35;;;;;;;2.19;58.72;101174.97;20865750;28;20095;-73
2021/03/20 23:40:45;;;;;;;10.80;4.53;;;;;;;2.25;59.57;101151.69;20888501;28;20057;-72
2021/03/20 23:50:47;;;;;;;11.40;4.30;;;;;;;2.45;60.46;101154.09;20909147;28;20047;-73
